createdAt,value
2019-05-09T00:01:25.688Z,9.49
2019-05-09T00:03:55.046Z,9.51
2019-05-09T00:06:24.473Z,9.50
2019-05-09T00:08:53.815Z,9.52
2019-05-09T00:11:24.581Z,9.51
2019-05-09T00:13:54.100Z,9.50
2019-05-09T00:16:23.730Z,9.51
2019-05-09T00:18:54.333Z,9.49
2019-05-09T00:21:25.335Z,9.52
2019-05-09T00:23:54.675Z,9.52
2019-05-09T00:26:24.041Z,9.53
2019-05-09T00:29:11.417Z,9.54
2019-05-09T00:31:48.155Z,9.53
2019-05-09T00:34:19.169Z,9.55
2019-05-09T00:36:48.542Z,9.56
2019-05-09T00:39:17.907Z,9.53
2019-05-09T00:41:47.272Z,9.52
2019-05-09T00:44:24.355Z,9.50
2019-05-09T00:46:58.339Z,9.48
2019-05-09T00:49:28.895Z,9.45
2019-05-09T00:51:58.256Z,9.41
2019-05-09T00:54:27.638Z,9.37
2019-05-09T00:56:57.004Z,9.34
2019-05-09T00:59:26.395Z,9.29
2019-05-09T01:01:55.925Z,9.27
2019-05-09T01:04:25.285Z,9.23
2019-05-09T01:06:54.651Z,9.18
2019-05-09T01:09:24.330Z,9.10
2019-05-09T01:11:53.685Z,9.01
2019-05-09T01:14:23.603Z,8.91
2019-05-09T01:16:53.613Z,8.83
2019-05-09T01:19:23.363Z,8.76
2019-05-09T01:21:54.318Z,8.71
2019-05-09T01:24:23.756Z,8.67
2019-05-09T01:26:54.173Z,8.62
2019-05-09T01:29:23.666Z,8.56
2019-05-09T01:31:54.692Z,8.51
2019-05-09T01:34:25.665Z,8.48
2019-05-09T01:37:03.654Z,8.44
2019-05-09T01:39:34.114Z,8.39
2019-05-09T01:42:03.702Z,8.37
2019-05-09T01:44:33.612Z,8.37
2019-05-09T01:47:03.965Z,8.37
2019-05-09T01:49:34.119Z,8.35
2019-05-09T01:52:03.887Z,8.35
2019-05-09T01:54:34.830Z,8.35
2019-05-09T01:57:04.263Z,8.35
2019-05-09T01:59:34.206Z,8.33
2019-05-09T02:02:08.794Z,8.33
2019-05-09T02:04:35.664Z,8.28
2019-05-09T02:07:05.078Z,8.25
2019-05-09T02:09:34.604Z,8.18
2019-05-09T02:12:04.358Z,8.11
2019-05-09T02:14:43.541Z,8.04
2019-05-09T02:17:19.899Z,7.99
2019-05-09T02:19:49.249Z,7.96
2019-05-09T02:22:34.466Z,7.96
2019-05-09T02:25:06.777Z,7.95
2019-05-09T02:27:36.161Z,7.93
2019-05-09T02:30:14.768Z,7.94
2019-05-09T02:32:44.750Z,7.94
2019-05-09T02:35:13.132Z,7.95
2019-05-09T02:37:42.497Z,7.92
2019-05-09T02:40:12.625Z,7.89
2019-05-09T02:42:42.061Z,7.89
2019-05-09T02:45:11.656Z,7.86
2019-05-09T02:47:41.042Z,7.82
2019-05-09T02:50:11.945Z,7.74
2019-05-09T02:52:41.275Z,7.69
2019-05-09T02:55:11.002Z,7.64
2019-05-09T02:57:41.116Z,7.58
2019-05-09T03:00:21.150Z,7.52
2019-05-09T03:02:59.640Z,7.48
2019-05-09T03:05:29.834Z,7.42
2019-05-09T03:07:59.398Z,7.37
2019-05-09T03:10:29.497Z,7.36
2019-05-09T03:12:59.592Z,7.35
2019-05-09T03:15:29.521Z,7.31
2019-05-09T03:17:59.933Z,7.26
2019-05-09T03:20:40.001Z,7.22
2019-05-09T03:23:09.490Z,7.16
2019-05-09T03:25:40.743Z,7.16
2019-05-09T03:28:14.388Z,7.11
2019-05-09T03:30:45.386Z,7.06
2019-05-09T03:33:14.774Z,7.00
2019-05-09T03:35:44.132Z,6.94
2019-05-09T03:38:13.477Z,6.89
2019-05-09T03:40:42.823Z,6.88
2019-05-09T03:43:12.181Z,6.87
2019-05-09T03:45:43.197Z,6.85
2019-05-09T03:48:19.926Z,6.84
2019-05-09T03:50:49.299Z,6.78
2019-05-09T03:53:18.653Z,6.77
2019-05-09T03:55:48.784Z,6.77
2019-05-09T03:58:21.407Z,6.76
2019-05-09T04:00:50.769Z,6.79
2019-05-09T04:03:20.455Z,6.82
2019-05-09T04:05:59.157Z,6.86
2019-05-09T04:08:20.828Z,6.87
2019-05-09T04:10:53.714Z,6.87
2019-05-09T04:13:24.794Z,6.86
2019-05-09T04:15:54.175Z,6.84
2019-05-09T04:18:23.559Z,6.84
2019-05-09T04:20:52.913Z,6.85
2019-05-09T04:23:22.262Z,6.91
2019-05-09T04:25:53.272Z,7.05
2019-05-09T04:28:22.641Z,7.20
2019-05-09T04:30:51.998Z,7.35
2019-05-09T04:36:08.486Z,7.68
2019-05-09T04:38:39.929Z,7.83
2019-05-09T04:41:08.867Z,7.95
2019-05-09T04:43:39.911Z,8.08
2019-05-09T04:46:12.972Z,8.17
2019-05-09T04:48:40.305Z,8.28
2019-05-09T04:51:09.698Z,8.36
2019-05-09T04:53:39.988Z,8.45
2019-05-09T04:56:19.936Z,8.51
2019-05-09T04:58:49.302Z,8.58
2019-05-09T05:01:23.045Z,8.62
2019-05-09T05:03:54.052Z,8.68
2019-05-09T05:06:23.408Z,8.75
2019-05-09T05:08:52.873Z,8.80
2019-05-09T05:11:22.230Z,8.80
2019-05-09T05:13:51.570Z,8.79
2019-05-09T05:16:20.941Z,8.81
2019-05-09T05:18:50.316Z,8.80
2019-05-09T05:21:20.496Z,8.79
2019-05-09T05:23:57.741Z,8.74
2019-05-09T05:26:27.714Z,8.72
2019-05-09T05:28:58.078Z,8.71
2019-05-09T05:31:28.551Z,8.77
2019-05-09T05:34:05.397Z,8.99
2019-05-09T05:36:34.743Z,9.44
2019-05-09T05:39:07.511Z,10.47
2019-05-09T05:41:37.856Z,10.47
2019-05-09T05:44:08.616Z,11.20
2019-05-09T05:46:48.323Z,11.57
2019-05-09T05:49:18.660Z,11.64
2019-05-09T05:51:50.751Z,11.72
2019-05-09T05:54:21.896Z,11.75
2019-05-09T05:56:51.267Z,11.81
2019-05-09T05:59:20.631Z,11.78
2019-05-09T06:01:49.992Z,11.85
2019-05-09T06:04:19.327Z,12.01
2019-05-09T06:06:48.707Z,12.09
2019-05-09T06:09:18.938Z,12.07
2019-05-09T06:11:48.823Z,12.13
2019-05-09T06:14:18.670Z,12.65
2019-05-09T06:16:48.812Z,13.36
2019-05-09T06:19:18.400Z,13.78
2019-05-09T06:21:52.082Z,14.26
2019-05-09T06:24:19.270Z,14.63
2019-05-09T06:26:48.617Z,14.87
2019-05-09T06:29:18.069Z,15.64
2019-05-09T06:31:48.454Z,16.54
2019-05-09T06:34:18.715Z,16.99
2019-05-09T06:36:49.073Z,17.60
2019-05-09T06:42:05.393Z,18.78
2019-05-09T06:44:48.222Z,19.94
2019-05-09T06:47:22.247Z,20.62
2019-05-09T06:49:53.245Z,21.39
2019-05-09T06:52:22.607Z,21.62
2019-05-09T06:54:51.945Z,20.97
2019-05-09T06:57:21.292Z,21.37
2019-05-09T06:59:50.685Z,21.65
2019-05-09T07:02:25.397Z,22.49
2019-05-09T07:04:58.176Z,23.04
2019-05-09T07:07:32.168Z,23.88
2019-05-09T07:10:07.557Z,24.26
2019-05-09T07:12:37.956Z,24.51
2019-05-09T07:15:08.873Z,25.02
2019-05-09T07:17:38.790Z,25.36
2019-05-09T07:20:08.699Z,26.12
2019-05-09T07:22:39.772Z,26.42
2019-05-09T07:25:11.483Z,26.41
2019-05-09T07:27:42.446Z,26.74
2019-05-09T07:30:15.080Z,26.86
2019-05-09T07:33:01.114Z,26.95
2019-05-09T07:35:30.487Z,27.24
2019-05-09T07:37:59.830Z,27.20
2019-05-09T07:40:30.742Z,26.07
2019-05-09T07:43:00.211Z,25.37
2019-05-09T07:45:30.539Z,24.03
2019-05-09T07:47:59.881Z,23.78
2019-05-09T07:50:29.245Z,22.55
2019-05-09T07:52:58.591Z,21.55
2019-05-09T07:55:27.939Z,21.57
2019-05-09T07:57:59.090Z,21.65
2019-05-09T08:00:33.574Z,21.04
2019-05-09T08:03:02.943Z,21.39
2019-05-09T08:05:32.439Z,21.20
2019-05-09T08:08:01.804Z,20.25
2019-05-09T08:10:33.226Z,19.54
2019-05-09T08:13:02.226Z,19.03
2019-05-09T08:15:31.589Z,18.70
2019-05-09T08:18:00.944Z,18.74
2019-05-09T08:20:30.267Z,18.64
2019-05-09T08:23:02.122Z,18.46
2019-05-09T08:25:30.676Z,18.08
2019-05-09T08:28:00.018Z,17.84
2019-05-09T08:30:35.920Z,17.68
2019-05-09T08:33:00.435Z,17.57
2019-05-09T08:35:30.496Z,17.52
2019-05-09T08:37:59.828Z,17.42
2019-05-09T08:40:29.213Z,17.24
2019-05-09T08:42:59.118Z,17.04
2019-05-09T08:45:31.573Z,16.82
2019-05-09T08:47:59.730Z,16.71
2019-05-09T08:50:38.886Z,16.57
2019-05-09T08:53:08.378Z,16.42
2019-05-09T08:55:38.483Z,16.28
2019-05-09T08:58:08.237Z,16.13
2019-05-09T09:00:39.000Z,15.96
2019-05-09T09:03:08.581Z,15.80
2019-05-09T09:05:38.338Z,15.71
2019-05-09T09:08:08.473Z,15.73
2019-05-09T09:10:38.672Z,15.70
2019-05-09T09:13:09.009Z,15.72
2019-05-09T09:16:02.417Z,15.67
2019-05-09T09:18:09.471Z,15.67
2019-05-09T09:20:38.879Z,15.73
2019-05-09T09:23:09.114Z,15.80
2019-05-09T09:25:39.097Z,15.84
2019-05-09T09:28:09.121Z,15.91
2019-05-09T09:30:39.153Z,16.10
2019-05-09T09:33:13.135Z,16.27
2019-05-09T09:35:39.610Z,16.54
2019-05-09T09:38:09.534Z,16.77
2019-05-09T09:40:39.001Z,17.07
2019-05-09T09:43:09.383Z,17.85
2019-05-09T09:45:38.897Z,18.65
2019-05-09T09:48:09.255Z,19.15
2019-05-09T09:50:38.737Z,19.43
2019-05-09T09:53:08.933Z,19.68
2019-05-09T09:55:38.805Z,19.64
2019-05-09T09:58:08.453Z,19.32
2019-05-09T10:00:58.698Z,19.13
2019-05-09T10:03:28.268Z,19.01
2019-05-09T10:08:44.465Z,18.85
2019-05-09T10:11:14.793Z,18.67
2019-05-09T10:13:44.155Z,18.74
2019-05-09T10:16:33.046Z,19.39
2019-05-09T10:19:04.040Z,20.61
2019-05-09T10:21:35.040Z,20.59
2019-05-09T10:24:04.659Z,20.56
2019-05-09T10:26:34.302Z,20.42
2019-05-09T10:29:03.660Z,19.94
2019-05-09T10:31:33.007Z,19.44
2019-05-09T10:34:02.360Z,19.11
2019-05-09T10:36:32.686Z,18.78
2019-05-09T10:39:02.041Z,18.45
2019-05-09T10:41:32.502Z,18.28
2019-05-09T10:44:03.447Z,18.46
2019-05-09T10:46:52.069Z,18.54
2019-05-09T10:49:09.143Z,18.67
2019-05-09T10:51:38.484Z,18.59
2019-05-09T10:54:08.363Z,18.46
2019-05-09T10:56:38.506Z,18.25
2019-05-09T10:59:08.087Z,18.03
2019-05-09T11:01:38.309Z,17.85
2019-05-09T11:04:08.776Z,17.77
2019-05-09T11:06:38.748Z,17.69
2019-05-09T11:09:09.727Z,17.67
2019-05-09T11:11:39.268Z,17.83
2019-05-09T11:14:08.859Z,17.92
2019-05-09T11:16:45.892Z,17.97
2019-05-09T11:19:09.303Z,17.80
2019-05-09T11:21:39.305Z,17.75
2019-05-09T11:24:08.729Z,17.80
2019-05-09T11:26:39.942Z,18.05
2019-05-09T11:29:09.123Z,18.32
2019-05-09T11:31:38.699Z,18.52
2019-05-09T11:34:09.069Z,18.65
2019-05-09T11:36:38.499Z,18.78
2019-05-09T11:39:10.718Z,18.82
2019-05-09T11:41:39.927Z,18.67
2019-05-09T11:44:09.290Z,18.70
2019-05-09T11:46:38.649Z,18.76
2019-05-09T11:49:08.624Z,18.81
2019-05-09T11:51:37.987Z,18.73
2019-05-09T11:54:09.112Z,18.50
2019-05-09T11:56:39.570Z,18.39
2019-05-09T11:59:08.934Z,18.48
2019-05-09T12:01:39.839Z,18.50
2019-05-09T12:04:09.639Z,18.60
2019-05-09T12:06:38.998Z,18.66
2019-05-09T12:09:09.423Z,18.74
2019-05-09T12:11:44.006Z,18.85
2019-05-09T12:14:09.845Z,18.85
2019-05-09T12:16:39.192Z,18.80
2019-05-09T12:19:08.555Z,18.86
2019-05-09T12:21:46.492Z,18.89
2019-05-09T12:24:09.229Z,19.03
2019-05-09T12:26:39.248Z,19.18
2019-05-09T12:29:08.894Z,19.17
2019-05-09T12:31:38.866Z,19.26
2019-05-09T12:34:09.107Z,19.46
2019-05-09T12:36:39.847Z,19.48
2019-05-09T12:39:09.456Z,19.59
2019-05-09T12:41:38.792Z,19.50
2019-05-09T12:44:08.807Z,19.54
2019-05-09T12:46:39.337Z,19.47
2019-05-09T12:49:10.008Z,19.26
2019-05-09T12:54:27.959Z,19.03
2019-05-09T12:56:59.153Z,18.87
2019-05-09T12:59:28.697Z,18.81
2019-05-09T13:01:58.271Z,18.77
2019-05-09T13:04:28.207Z,18.63
2019-05-09T13:06:58.684Z,18.47
2019-05-09T13:09:28.701Z,18.40
2019-05-09T13:11:58.107Z,18.34
2019-05-09T13:14:28.567Z,18.39
2019-05-09T13:17:14.806Z,18.42
2019-05-09T13:19:48.021Z,18.45
2019-05-09T13:22:18.477Z,18.42
2019-05-09T13:24:47.951Z,18.41
2019-05-09T13:27:18.983Z,18.48
2019-05-09T13:29:49.255Z,18.56
2019-05-09T13:32:18.983Z,18.52
2019-05-09T13:34:48.805Z,18.43
2019-05-09T13:37:18.920Z,18.30
2019-05-09T13:39:48.393Z,18.20
2019-05-09T13:42:19.648Z,18.05
2019-05-09T13:44:48.785Z,17.86
2019-05-09T13:47:18.157Z,17.77
2019-05-09T13:49:48.440Z,17.58
2019-05-09T13:52:18.150Z,17.40
2019-05-09T13:54:48.228Z,17.23
2019-05-09T13:57:18.799Z,17.19
2019-05-09T13:59:48.794Z,17.14
2019-05-09T14:02:18.942Z,17.12
2019-05-09T14:04:48.859Z,17.13
2019-05-09T14:07:19.361Z,17.18
2019-05-09T14:09:48.871Z,17.25
2019-05-09T14:12:18.220Z,17.37
2019-05-09T14:14:47.618Z,17.48
2019-05-09T14:17:19.111Z,17.50
2019-05-09T14:19:51.186Z,17.53
2019-05-09T14:22:20.100Z,17.56
2019-05-09T14:24:50.512Z,17.59
2019-05-09T14:27:20.832Z,17.69
2019-05-09T14:29:50.180Z,17.81
2019-05-09T14:32:19.537Z,17.94
2019-05-09T14:34:48.904Z,18.03
2019-05-09T14:37:18.290Z,18.06
2019-05-09T14:39:57.768Z,18.04
2019-05-09T14:42:19.013Z,17.97
2019-05-09T14:44:49.390Z,17.85
2019-05-09T14:47:18.754Z,17.76
2019-05-09T14:49:49.822Z,17.68
2019-05-09T14:52:19.212Z,17.63
2019-05-09T14:54:48.593Z,17.60
2019-05-09T14:57:17.958Z,17.58
2019-05-09T14:59:47.310Z,17.56
2019-05-09T15:02:17.909Z,17.51
2019-05-09T15:04:48.567Z,17.48
2019-05-09T15:07:19.419Z,17.54
2019-05-09T15:09:49.012Z,17.54
2019-05-09T15:12:18.660Z,17.49
2019-05-09T15:14:48.105Z,17.44
2019-05-09T15:17:18.552Z,17.35
2019-05-09T15:19:57.547Z,17.22
2019-05-09T15:22:19.057Z,17.09
2019-05-09T15:24:48.402Z,16.96
2019-05-09T15:27:17.921Z,16.90
2019-05-09T15:29:48.623Z,16.85
2019-05-09T15:32:18.437Z,16.80
2019-05-09T15:34:47.784Z,16.73
2019-05-09T15:37:18.678Z,16.72
2019-05-09T15:39:48.506Z,16.77
2019-05-09T15:42:18.365Z,16.80
2019-05-09T15:44:47.820Z,16.77
2019-05-09T15:47:24.546Z,16.76
2019-05-09T15:49:53.905Z,16.81
2019-05-09T15:52:23.272Z,16.95
2019-05-09T15:54:52.642Z,17.07
2019-05-09T15:57:22.016Z,17.11
2019-05-09T15:59:51.477Z,17.08
2019-05-09T16:02:20.809Z,17.02
2019-05-09T16:04:50.183Z,16.93
2019-05-09T16:07:19.522Z,16.81
2019-05-09T16:09:48.896Z,16.73
2019-05-09T16:12:18.588Z,16.71
2019-05-09T16:14:48.722Z,16.75
2019-05-09T16:17:19.150Z,16.76
2019-05-09T16:19:49.691Z,16.75
2019-05-09T16:22:19.240Z,16.74
2019-05-09T16:24:48.776Z,16.69
2019-05-09T16:27:18.080Z,16.69
2019-05-09T16:29:48.592Z,16.71
2019-05-09T16:32:19.049Z,16.73
2019-05-09T16:34:48.407Z,16.79
2019-05-09T16:37:17.796Z,16.84
2019-05-09T16:39:47.725Z,16.89
2019-05-09T16:42:17.113Z,16.96
2019-05-09T16:44:48.115Z,17.06
2019-05-09T16:47:21.857Z,17.16
2019-05-09T16:49:48.587Z,17.22
2019-05-09T16:52:18.064Z,17.20
2019-05-09T16:54:50.303Z,17.18
2019-05-09T16:57:19.608Z,17.14
2019-05-09T16:59:48.956Z,17.08
2019-05-09T17:02:24.503Z,16.97
2019-05-09T17:04:49.415Z,16.84
2019-05-09T17:07:18.780Z,16.72
2019-05-09T17:09:48.577Z,16.61
2019-05-09T17:12:18.624Z,16.50
2019-05-09T17:14:48.118Z,16.41
2019-05-09T17:17:17.960Z,16.33
2019-05-09T17:19:48.052Z,16.27
2019-05-09T17:22:19.296Z,16.20
2019-05-09T17:24:49.312Z,16.14
2019-05-09T17:27:19.021Z,16.16
2019-05-09T17:29:48.488Z,16.14
2019-05-09T17:32:18.411Z,16.12
2019-05-09T17:34:47.771Z,16.11
2019-05-09T17:37:17.715Z,16.13
2019-05-09T17:39:48.307Z,16.13
2019-05-09T17:42:18.312Z,16.13
2019-05-09T17:44:49.039Z,16.12
2019-05-09T17:47:19.366Z,16.12
2019-05-09T17:49:48.714Z,16.09
2019-05-09T17:52:18.388Z,16.08
2019-05-09T17:54:48.552Z,16.06
2019-05-09T17:57:18.837Z,16.05
2019-05-09T17:59:48.977Z,16.03
2019-05-09T18:02:18.425Z,15.88
2019-05-09T18:04:48.184Z,15.35
2019-05-09T18:07:18.558Z,14.64
2019-05-09T18:09:48.561Z,13.91
2019-05-09T18:12:19.030Z,13.29
2019-05-09T18:14:49.478Z,12.97
2019-05-09T18:17:18.915Z,12.77
2019-05-09T18:19:48.297Z,12.56
2019-05-09T18:22:18.617Z,12.39
2019-05-09T18:24:48.344Z,12.20
2019-05-09T18:27:18.854Z,12.05
2019-05-09T18:29:48.309Z,11.92
2019-05-09T18:32:19.314Z,11.80
2019-05-09T18:34:48.732Z,11.67
2019-05-09T18:37:18.105Z,11.60
2019-05-09T18:39:48.452Z,11.56
2019-05-09T18:42:17.999Z,11.52
2019-05-09T18:44:47.719Z,11.47
2019-05-09T18:47:18.511Z,11.38
2019-05-09T18:49:47.909Z,11.38
2019-05-09T18:52:17.264Z,11.35
2019-05-09T18:54:47.425Z,11.33
2019-05-09T18:57:18.264Z,11.33
2019-05-09T18:59:47.633Z,11.33
2019-05-09T19:02:17.100Z,11.34
2019-05-09T19:04:46.461Z,11.34
2019-05-09T19:07:22.590Z,11.36
2019-05-09T19:09:48.723Z,11.37
2019-05-09T19:12:18.090Z,11.37
2019-05-09T19:14:48.324Z,11.35
2019-05-09T19:17:19.348Z,11.31
2019-05-09T19:19:55.907Z,11.27
2019-05-09T19:22:25.285Z,11.23
2019-05-09T19:24:54.666Z,11.19
2019-05-09T19:27:24.038Z,11.17
2019-05-09T19:29:53.428Z,11.14
2019-05-09T19:32:23.916Z,11.13
2019-05-09T19:34:53.322Z,11.09
2019-05-09T19:37:22.711Z,11.10
2019-05-09T19:39:52.081Z,11.10
2019-05-09T19:42:21.471Z,11.09
2019-05-09T19:44:50.880Z,11.07
2019-05-09T19:47:20.265Z,11.08
2019-05-09T19:49:49.631Z,11.07
2019-05-09T19:52:19.014Z,11.07
2019-05-09T19:54:48.389Z,11.06
2019-05-09T19:57:17.787Z,11.03
2019-05-09T19:59:47.126Z,11.03
2019-05-09T20:02:16.482Z,11.01
2019-05-09T20:04:45.897Z,10.94
2019-05-09T20:07:15.239Z,10.85
2019-05-09T20:09:46.292Z,10.85
2019-05-09T20:12:17.298Z,10.78
2019-05-09T20:14:48.290Z,10.72
2019-05-09T20:17:17.624Z,10.67
2019-05-09T20:19:46.997Z,10.55
2019-05-09T20:22:16.356Z,10.55
2019-05-09T20:24:45.732Z,10.53
2019-05-09T20:27:15.083Z,10.44
2019-05-09T20:29:44.453Z,10.44
2019-05-09T20:32:13.805Z,10.43
2019-05-09T20:34:43.157Z,10.48
2019-05-09T20:37:12.533Z,10.57
2019-05-09T20:39:42.102Z,10.63
2019-05-09T20:42:11.627Z,10.68
2019-05-09T20:44:41.186Z,10.66
2019-05-09T20:47:10.733Z,10.70
2019-05-09T20:49:40.290Z,10.70
2019-05-09T20:52:09.845Z,10.65
2019-05-09T20:54:39.420Z,10.61
2019-05-09T20:57:08.973Z,10.53
2019-05-09T20:59:38.516Z,10.46
2019-05-09T21:02:08.057Z,10.40
2019-05-09T21:04:37.600Z,10.34
2019-05-09T21:07:07.225Z,10.28
2019-05-09T21:09:36.791Z,10.25
2019-05-09T21:12:06.370Z,10.21
2019-05-09T21:14:35.905Z,10.23
2019-05-09T21:17:06.561Z,10.24
2019-05-09T21:19:36.098Z,10.21
2019-05-09T21:22:05.677Z,10.19
2019-05-09T21:24:35.212Z,10.16
2019-05-09T21:27:04.773Z,10.14
2019-05-09T21:29:35.073Z,10.12
2019-05-09T21:32:04.657Z,10.08
2019-05-09T21:37:21.832Z,10.02
2019-05-09T21:39:51.186Z,10.00
2019-05-09T21:42:20.562Z,9.99
2019-05-09T21:44:49.943Z,10.02
2019-05-09T21:47:19.333Z,10.06
2019-05-09T21:49:48.696Z,10.09
2019-05-09T21:52:18.079Z,10.12
2019-05-09T21:54:47.419Z,10.13
2019-05-09T21:57:16.828Z,10.11
2019-05-09T21:59:46.191Z,10.10
2019-05-09T22:02:15.906Z,10.10
2019-05-09T22:04:45.442Z,10.11
2019-05-09T22:07:14.966Z,10.09
2019-05-09T22:09:44.346Z,10.07
2019-05-09T22:12:13.800Z,10.03
2019-05-09T22:14:43.156Z,9.98
2019-05-09T22:17:14.157Z,9.93
2019-05-09T22:19:43.665Z,9.89
2019-05-09T22:22:13.099Z,9.89
2019-05-09T22:24:42.450Z,9.87
2019-05-09T22:27:11.850Z,9.84
2019-05-09T22:29:41.189Z,9.79
2019-05-09T22:32:10.542Z,9.73
2019-05-09T22:34:39.900Z,9.69
2019-05-09T22:37:09.281Z,9.63
2019-05-09T22:39:38.653Z,9.57
2019-05-09T22:42:08.067Z,9.53
2019-05-09T22:44:37.436Z,9.50
2019-05-09T22:47:06.811Z,9.45
2019-05-09T22:49:37.193Z,9.40
2019-05-09T22:52:06.573Z,9.38
2019-05-09T22:54:35.918Z,9.31
2019-05-09T22:57:05.279Z,9.27
2019-05-09T22:59:34.661Z,9.23
2019-05-09T23:02:07.046Z,9.23
2019-05-09T23:04:35.093Z,9.27
2019-05-09T23:07:04.613Z,9.35
2019-05-09T23:09:33.983Z,9.42
2019-05-09T23:12:03.354Z,9.48
2019-05-09T23:14:32.707Z,9.56
2019-05-09T23:17:02.158Z,9.60
2019-05-09T23:19:31.525Z,9.56
2019-05-09T23:22:00.888Z,9.55
2019-05-09T23:24:34.833Z,9.58
2019-05-09T23:27:04.357Z,9.61
2019-05-09T23:29:33.710Z,9.61
2019-05-09T23:32:16.560Z,9.62
2019-05-09T23:34:45.904Z,9.63
2019-05-09T23:37:15.308Z,9.67
2019-05-09T23:39:46.323Z,9.70
2019-05-09T23:42:15.695Z,9.71
2019-05-09T23:44:45.040Z,9.70
2019-05-09T23:47:14.385Z,9.72
2019-05-09T23:49:43.727Z,9.73
2019-05-09T23:52:13.067Z,9.75
2019-05-09T23:55:00.228Z,9.76
2019-05-09T23:57:47.435Z,9.77
